Terminal Aerodrome Forecast
Issued by NWS

Home | Current Version | Previous Version | Text Only | Print | Product List | Glossary On
Versions: 1 2 3 4 5 6 7 8 9 10 11 12 13 14 15 16 17
000
FTUS42 KMLB 171720
TAFLEE
TAF
KLEE 171720Z 1718/1818 13006KT P6SM SCT035 SCT250
     FM180000 VRB03KT P6SM SCT250
      TEMPO 1809/1812 1SM BR SCT004
     FM181500 17005KT P6SM SCT250=

USA.gov is the U.S. government's official web portal to all federal, state and local government web resources and services.